sensor_id;sensor_type;location;lat;lon;timestamp;P1;durP1;ratioP1;P2;durP2;ratioP2
74626;SDS011;63132;52.268;5.192;2023-05-07T00:02:20;94.88;;;44.00;;
74626;SDS011;63132;52.268;5.192;2023-05-07T00:07:11;76.95;;;42.05;;
74626;SDS011;63132;52.268;5.192;2023-05-07T00:12:01;84.53;;;42.50;;
74626;SDS011;63132;52.268;5.192;2023-05-07T00:16:52;90.65;;;45.38;;
74626;SDS011;63132;52.268;5.192;2023-05-07T00:21:43;87.00;;;45.75;;
74626;SDS011;63132;52.268;5.192;2023-05-07T00:26:33;85.07;;;44.47;;
74626;SDS011;63132;52.268;5.192;2023-05-07T00:31:24;76.85;;;41.50;;
74626;SDS011;63132;52.268;5.192;2023-05-07T00:36:15;77.82;;;42.92;;
74626;SDS011;63132;52.268;5.192;2023-05-07T00:41:06;73.37;;;40.93;;
74626;SDS011;63132;52.268;5.192;2023-05-07T00:45:57;67.22;;;38.53;;
74626;SDS011;63132;52.268;5.192;2023-05-07T00:50:49;65.73;;;38.23;;
74626;SDS011;63132;52.268;5.192;2023-05-07T00:55:40;55.50;;;35.10;;
74626;SDS011;63132;52.268;5.192;2023-05-07T01:00:31;65.35;;;36.55;;
74626;SDS011;63132;52.268;5.192;2023-05-07T01:05:22;59.45;;;35.97;;
74626;SDS011;63132;52.268;5.192;2023-05-07T01:07:49;62.45;;;36.33;;
74626;SDS011;63132;52.268;5.192;2023-05-07T01:10:17;61.30;;;37.47;;
74626;SDS011;63132;52.268;5.192;2023-05-07T01:15:09;58.83;;;36.15;;
74626;SDS011;63132;52.268;5.192;2023-05-07T01:20:05;54.90;;;34.35;;
74626;SDS011;63132;52.268;5.192;2023-05-07T01:22:35;53.97;;;34.47;;
74626;SDS011;63132;52.268;5.192;2023-05-07T01:25:05;54.53;;;34.88;;
74626;SDS011;63132;52.268;5.192;2023-05-07T01:27:32;53.20;;;35.85;;
74626;SDS011;63132;52.268;5.192;2023-05-07T01:29:58;50.08;;;34.03;;
74626;SDS011;63132;52.268;5.192;2023-05-07T01:34:58;48.00;;;30.20;;
74626;SDS011;63132;52.268;5.192;2023-05-07T01:37:26;52.67;;;32.38;;
74626;SDS011;63132;52.268;5.192;2023-05-07T01:42:17;46.67;;;31.90;;
74626;SDS011;63132;52.268;5.192;2023-05-07T01:47:08;42.53;;;29.13;;
74626;SDS011;63132;52.268;5.192;2023-05-07T01:51:59;49.85;;;30.58;;
74626;SDS011;63132;52.268;5.192;2023-05-07T01:54:28;46.33;;;30.25;;
74626;SDS011;63132;52.268;5.192;2023-05-07T01:59:21;44.88;;;29.58;;
74626;SDS011;63132;52.268;5.192;2023-05-07T02:04:12;41.80;;;28.17;;
74626;SDS011;63132;52.268;5.192;2023-05-07T02:09:03;43.22;;;29.10;;
74626;SDS011;63132;52.268;5.192;2023-05-07T02:13:53;44.17;;;29.65;;
74626;SDS011;63132;52.268;5.192;2023-05-07T02:18:44;53.42;;;30.63;;
74626;SDS011;63132;52.268;5.192;2023-05-07T02:23:35;47.38;;;30.10;;
74626;SDS011;63132;52.268;5.192;2023-05-07T02:28:26;47.92;;;29.55;;
74626;SDS011;63132;52.268;5.192;2023-05-07T02:33:17;46.42;;;29.83;;
74626;SDS011;63132;52.268;5.192;2023-05-07T02:38:08;45.85;;;29.20;;
74626;SDS011;63132;52.268;5.192;2023-05-07T02:40:35;44.97;;;29.55;;
74626;SDS011;63132;52.268;5.192;2023-05-07T02:43:03;44.95;;;30.92;;
74626;SDS011;63132;52.268;5.192;2023-05-07T02:47:54;45.63;;;29.95;;
74626;SDS011;63132;52.268;5.192;2023-05-07T02:52:45;39.25;;;26.45;;
74626;SDS011;63132;52.268;5.192;2023-05-07T02:57:36;39.25;;;27.05;;
74626;SDS011;63132;52.268;5.192;2023-05-07T03:00:09;41.92;;;27.70;;
74626;SDS011;63132;52.268;5.192;2023-05-07T03:02:36;42.83;;;28.45;;
74626;SDS011;63132;52.268;5.192;2023-05-07T03:07:27;39.95;;;27.63;;
74626;SDS011;63132;52.268;5.192;2023-05-07T03:12:18;41.63;;;27.90;;
74626;SDS011;63132;52.268;5.192;2023-05-07T03:17:09;45.13;;;29.08;;
74626;SDS011;63132;52.268;5.192;2023-05-07T03:22:00;50.65;;;29.88;;
74626;SDS011;63132;52.268;5.192;2023-05-07T03:26:50;45.53;;;28.92;;
74626;SDS011;63132;52.268;5.192;2023-05-07T03:31:41;47.67;;;30.23;;
74626;SDS011;63132;52.268;5.192;2023-05-07T03:36:31;41.70;;;28.52;;
74626;SDS011;63132;52.268;5.192;2023-05-07T03:41:22;37.95;;;27.00;;
74626;SDS011;63132;52.268;5.192;2023-05-07T03:46:13;46.40;;;28.98;;
74626;SDS011;63132;52.268;5.192;2023-05-07T03:51:03;39.78;;;27.58;;
74626;SDS011;63132;52.268;5.192;2023-05-07T03:55:54;42.17;;;26.65;;
74626;SDS011;63132;52.268;5.192;2023-05-07T04:00:44;44.33;;;27.23;;
74626;SDS011;63132;52.268;5.192;2023-05-07T04:05:35;37.42;;;26.75;;
74626;SDS011;63132;52.268;5.192;2023-05-07T04:10:27;35.67;;;25.98;;
74626;SDS011;63132;52.268;5.192;2023-05-07T04:12:55;37.60;;;26.13;;
74626;SDS011;63132;52.268;5.192;2023-05-07T04:15:21;35.88;;;25.20;;
74626;SDS011;63132;52.268;5.192;2023-05-07T04:20:14;42.70;;;27.80;;
74626;SDS011;63132;52.268;5.192;2023-05-07T04:22:41;38.85;;;27.13;;
74626;SDS011;63132;52.268;5.192;2023-05-07T04:27:34;46.03;;;26.05;;
74626;SDS011;63132;52.268;5.192;2023-05-07T04:32:25;38.50;;;25.00;;
74626;SDS011;63132;52.268;5.192;2023-05-07T04:37:16;44.45;;;27.48;;
74626;SDS011;63132;52.268;5.192;2023-05-07T04:42:07;42.92;;;27.00;;
74626;SDS011;63132;52.268;5.192;2023-05-07T04:44:33;36.05;;;26.65;;
74626;SDS011;63132;52.268;5.192;2023-05-07T04:47:00;44.38;;;27.55;;
74626;SDS011;63132;52.268;5.192;2023-05-07T04:51:51;39.55;;;26.45;;
74626;SDS011;63132;52.268;5.192;2023-05-07T04:56:41;42.60;;;28.17;;
74626;SDS011;63132;52.268;5.192;2023-05-07T05:01:32;44.35;;;28.48;;
74626;SDS011;63132;52.268;5.192;2023-05-07T05:06:23;51.17;;;31.17;;
74626;SDS011;63132;52.268;5.192;2023-05-07T05:11:13;44.43;;;27.03;;
74626;SDS011;63132;52.268;5.192;2023-05-07T05:13:39;45.70;;;29.60;;
74626;SDS011;63132;52.268;5.192;2023-05-07T05:18:30;39.45;;;28.13;;
74626;SDS011;63132;52.268;5.192;2023-05-07T05:23:21;41.47;;;26.70;;
74626;SDS011;63132;52.268;5.192;2023-05-07T05:28:12;45.50;;;28.73;;
74626;SDS011;63132;52.268;5.192;2023-05-07T05:30:38;38.50;;;27.50;;
74626;SDS011;63132;52.268;5.192;2023-05-07T05:33:04;44.35;;;30.17;;
74626;SDS011;63132;52.268;5.192;2023-05-07T05:37:55;40.88;;;26.85;;
74626;SDS011;63132;52.268;5.192;2023-05-07T05:42:45;43.15;;;27.98;;
74626;SDS011;63132;52.268;5.192;2023-05-07T05:47:37;39.80;;;27.92;;
74626;SDS011;63132;52.268;5.192;2023-05-07T05:50:02;42.70;;;27.25;;
74626;SDS011;63132;52.268;5.192;2023-05-07T05:54:53;37.22;;;26.58;;
74626;SDS011;63132;52.268;5.192;2023-05-07T05:59:44;39.70;;;26.13;;
74626;SDS011;63132;52.268;5.192;2023-05-07T06:02:10;35.88;;;24.80;;
74626;SDS011;63132;52.268;5.192;2023-05-07T06:07:00;33.75;;;24.63;;
74626;SDS011;63132;52.268;5.192;2023-05-07T06:09:26;37.63;;;25.35;;
74626;SDS011;63132;52.268;5.192;2023-05-07T06:14:16;33.97;;;25.03;;
74626;SDS011;63132;52.268;5.192;2023-05-07T06:19:07;39.05;;;26.02;;
74626;SDS011;63132;52.268;5.192;2023-05-07T06:21:32;34.58;;;24.80;;
74626;SDS011;63132;52.268;5.192;2023-05-07T06:23:57;31.60;;;23.55;;
74626;SDS011;63132;52.268;5.192;2023-05-07T06:26:23;33.58;;;22.73;;
74626;SDS011;63132;52.268;5.192;2023-05-07T06:28:48;31.20;;;21.58;;
74626;SDS011;63132;52.268;5.192;2023-05-07T06:31:14;33.78;;;21.25;;
74626;SDS011;63132;52.268;5.192;2023-05-07T06:33:41;26.25;;;20.55;;
74626;SDS011;63132;52.268;5.192;2023-05-07T06:36:07;30.55;;;20.10;;
74626;SDS011;63132;52.268;5.192;2023-05-07T06:38:32;26.73;;;20.00;;
74626;SDS011;63132;52.268;5.192;2023-05-07T06:40:58;25.42;;;19.73;;
74626;SDS011;63132;52.268;5.192;2023-05-07T06:43:23;25.00;;;20.45;;
74626;SDS011;63132;52.268;5.192;2023-05-07T06:45:48;30.20;;;22.55;;
74626;SDS011;63132;52.268;5.192;2023-05-07T06:48:14;27.17;;;19.85;;
74626;SDS011;63132;52.268;5.192;2023-05-07T06:53:05;27.80;;;21.83;;
74626;SDS011;63132;52.268;5.192;2023-05-07T06:55:30;32.42;;;22.60;;
74626;SDS011;63132;52.268;5.192;2023-05-07T06:57:55;31.95;;;23.08;;
74626;SDS011;63132;52.268;5.192;2023-05-07T07:00:23;31.30;;;23.73;;
74626;SDS011;63132;52.268;5.192;2023-05-07T07:02:48;29.55;;;22.20;;
74626;SDS011;63132;52.268;5.192;2023-05-07T07:05:13;29.38;;;21.77;;
74626;SDS011;63132;52.268;5.192;2023-05-07T07:07:39;28.52;;;21.55;;
74626;SDS011;63132;52.268;5.192;2023-05-07T07:10:04;32.05;;;22.05;;
74626;SDS011;63132;52.268;5.192;2023-05-07T07:12:30;29.05;;;22.08;;
74626;SDS011;63132;52.268;5.192;2023-05-07T07:14:55;27.88;;;20.30;;
74626;SDS011;63132;52.268;5.192;2023-05-07T07:17:21;25.90;;;20.58;;
74626;SDS011;63132;52.268;5.192;2023-05-07T07:19:46;27.17;;;19.80;;
74626;SDS011;63132;52.268;5.192;2023-05-07T07:22:11;25.27;;;19.70;;
74626;SDS011;63132;52.268;5.192;2023-05-07T07:24:37;24.63;;;18.30;;
74626;SDS011;63132;52.268;5.192;2023-05-07T07:27:02;25.15;;;17.65;;
74626;SDS011;63132;52.268;5.192;2023-05-07T07:29:27;22.40;;;17.70;;
74626;SDS011;63132;52.268;5.192;2023-05-07T07:31:53;23.50;;;18.15;;
74626;SDS011;63132;52.268;5.192;2023-05-07T07:34:18;22.50;;;18.13;;
74626;SDS011;63132;52.268;5.192;2023-05-07T07:36:43;24.35;;;18.00;;
74626;SDS011;63132;52.268;5.192;2023-05-07T07:39:09;22.30;;;18.55;;
74626;SDS011;63132;52.268;5.192;2023-05-07T07:41:34;23.35;;;17.60;;
74626;SDS011;63132;52.268;5.192;2023-05-07T07:43:59;24.58;;;19.13;;
74626;SDS011;63132;52.268;5.192;2023-05-07T07:46:25;23.88;;;16.98;;
74626;SDS011;63132;52.268;5.192;2023-05-07T07:48:51;19.05;;;15.68;;
74626;SDS011;63132;52.268;5.192;2023-05-07T07:51:16;23.83;;;18.35;;
74626;SDS011;63132;52.268;5.192;2023-05-07T07:53:42;23.40;;;17.52;;
74626;SDS011;63132;52.268;5.192;2023-05-07T07:56:08;21.13;;;17.55;;
74626;SDS011;63132;52.268;5.192;2023-05-07T07:58:33;20.90;;;17.08;;
74626;SDS011;63132;52.268;5.192;2023-05-07T08:01:00;22.25;;;17.42;;
74626;SDS011;63132;52.268;5.192;2023-05-07T08:03:25;21.95;;;16.88;;
74626;SDS011;63132;52.268;5.192;2023-05-07T08:05:51;24.17;;;17.02;;
74626;SDS011;63132;52.268;5.192;2023-05-07T08:08:16;19.38;;;15.80;;
74626;SDS011;63132;52.268;5.192;2023-05-07T08:10:42;18.58;;;14.93;;
74626;SDS011;63132;52.268;5.192;2023-05-07T08:13:07;19.88;;;16.95;;
74626;SDS011;63132;52.268;5.192;2023-05-07T08:15:33;18.00;;;15.43;;
74626;SDS011;63132;52.268;5.192;2023-05-07T08:17:58;17.45;;;14.88;;
74626;SDS011;63132;52.268;5.192;2023-05-07T08:20:25;19.85;;;15.80;;
74626;SDS011;63132;52.268;5.192;2023-05-07T08:22:51;20.52;;;15.95;;
74626;SDS011;63132;52.268;5.192;2023-05-07T08:25:16;21.30;;;16.60;;
74626;SDS011;63132;52.268;5.192;2023-05-07T08:27:41;19.63;;;17.05;;
74626;SDS011;63132;52.268;5.192;2023-05-07T08:30:07;20.17;;;15.77;;
74626;SDS011;63132;52.268;5.192;2023-05-07T08:32:33;20.63;;;16.88;;
74626;SDS011;63132;52.268;5.192;2023-05-07T08:34:58;22.88;;;16.92;;
74626;SDS011;63132;52.268;5.192;2023-05-07T08:37:24;18.42;;;16.02;;
74626;SDS011;63132;52.268;5.192;2023-05-07T08:39:49;20.73;;;16.50;;
74626;SDS011;63132;52.268;5.192;2023-05-07T08:42:15;21.60;;;15.45;;
74626;SDS011;63132;52.268;5.192;2023-05-07T08:44:41;20.55;;;17.25;;
74626;SDS011;63132;52.268;5.192;2023-05-07T08:47:13;23.85;;;17.42;;
74626;SDS011;63132;52.268;5.192;2023-05-07T08:49:39;24.35;;;17.92;;
74626;SDS011;63132;52.268;5.192;2023-05-07T08:52:05;21.15;;;16.30;;
74626;SDS011;63132;52.268;5.192;2023-05-07T08:54:30;21.40;;;17.50;;
74626;SDS011;63132;52.268;5.192;2023-05-07T08:56:56;21.05;;;16.85;;
74626;SDS011;63132;52.268;5.192;2023-05-07T08:59:21;20.85;;;16.00;;
74626;SDS011;63132;52.268;5.192;2023-05-07T09:01:47;22.70;;;16.90;;
74626;SDS011;63132;52.268;5.192;2023-05-07T09:04:12;20.67;;;15.73;;
74626;SDS011;63132;52.268;5.192;2023-05-07T09:06:38;22.05;;;17.58;;
74626;SDS011;63132;52.268;5.192;2023-05-07T09:09:06;23.92;;;17.10;;
74626;SDS011;63132;52.268;5.192;2023-05-07T09:11:32;18.30;;;15.93;;
74626;SDS011;63132;52.268;5.192;2023-05-07T09:13:57;19.98;;;17.00;;
74626;SDS011;63132;52.268;5.192;2023-05-07T09:16:26;18.75;;;16.60;;
74626;SDS011;63132;52.268;5.192;2023-05-07T09:18:53;21.90;;;18.90;;
74626;SDS011;63132;52.268;5.192;2023-05-07T09:21:19;23.13;;;17.02;;
74626;SDS011;63132;52.268;5.192;2023-05-07T09:23:47;17.70;;;15.45;;
74626;SDS011;63132;52.268;5.192;2023-05-07T09:26:13;20.70;;;14.13;;
74626;SDS011;63132;52.268;5.192;2023-05-07T09:28:39;16.92;;;13.55;;
74626;SDS011;63132;52.268;5.192;2023-05-07T09:31:08;13.73;;;12.23;;
74626;SDS011;63132;52.268;5.192;2023-05-07T09:33:34;13.68;;;10.63;;
74626;SDS011;63132;52.268;5.192;2023-05-07T09:36:03;16.85;;;11.50;;
74626;SDS011;63132;52.268;5.192;2023-05-07T09:38:30;14.25;;;10.68;;
74626;SDS011;63132;52.268;5.192;2023-05-07T09:41:03;13.65;;;10.70;;
74626;SDS011;63132;52.268;5.192;2023-05-07T09:43:31;14.07;;;10.25;;
74626;SDS011;63132;52.268;5.192;2023-05-07T09:46:06;12.48;;;9.95;;
74626;SDS011;63132;52.268;5.192;2023-05-07T09:48:35;15.10;;;10.32;;
74626;SDS011;63132;52.268;5.192;2023-05-07T09:51:03;15.35;;;12.45;;
74626;SDS011;63132;52.268;5.192;2023-05-07T09:53:35;12.77;;;10.40;;
74626;SDS011;63132;52.268;5.192;2023-05-07T09:56:01;15.32;;;11.65;;
74626;SDS011;63132;52.268;5.192;2023-05-07T09:58:27;15.90;;;11.27;;
74626;SDS011;63132;52.268;5.192;2023-05-07T10:00:54;16.10;;;10.88;;
74626;SDS011;63132;52.268;5.192;2023-05-07T10:03:20;15.88;;;12.18;;
74626;SDS011;63132;52.268;5.192;2023-05-07T10:05:47;16.30;;;10.95;;
74626;SDS011;63132;52.268;5.192;2023-05-07T10:08:13;14.05;;;11.63;;
74626;SDS011;63132;52.268;5.192;2023-05-07T10:10:41;14.88;;;11.02;;
74626;SDS011;63132;52.268;5.192;2023-05-07T10:13:07;16.40;;;12.10;;
74626;SDS011;63132;52.268;5.192;2023-05-07T10:15:35;14.43;;;11.75;;
74626;SDS011;63132;52.268;5.192;2023-05-07T10:18:01;14.73;;;11.63;;
74626;SDS011;63132;52.268;5.192;2023-05-07T10:20:28;18.90;;;12.38;;
74626;SDS011;63132;52.268;5.192;2023-05-07T10:22:54;16.25;;;12.52;;
74626;SDS011;63132;52.268;5.192;2023-05-07T10:25:25;16.25;;;13.38;;
74626;SDS011;63132;52.268;5.192;2023-05-07T10:27:55;14.43;;;12.68;;
74626;SDS011;63132;52.268;5.192;2023-05-07T10:33:11;17.08;;;12.95;;
74626;SDS011;63132;52.268;5.192;2023-05-07T10:35:41;15.35;;;12.55;;
74626;SDS011;63132;52.268;5.192;2023-05-07T10:38:08;16.15;;;12.93;;
74626;SDS011;63132;52.268;5.192;2023-05-07T10:40:34;18.55;;;12.23;;
74626;SDS011;63132;52.268;5.192;2023-05-07T10:43:00;14.60;;;11.13;;
74626;SDS011;63132;52.268;5.192;2023-05-07T10:45:29;17.48;;;10.38;;
74626;SDS011;63132;52.268;5.192;2023-05-07T10:48:07;15.88;;;10.00;;
74626;SDS011;63132;52.268;5.192;2023-05-07T10:50:34;11.77;;;8.68;;
74626;SDS011;63132;52.268;5.192;2023-05-07T11:00:48;13.07;;;8.05;;
74626;SDS011;63132;52.268;5.192;2023-05-07T11:03:14;13.60;;;8.88;;
74626;SDS011;63132;52.268;5.192;2023-05-07T11:05:40;13.00;;;7.55;;
74626;SDS011;63132;52.268;5.192;2023-05-07T11:08:07;10.98;;;7.63;;
74626;SDS011;63132;52.268;5.192;2023-05-07T11:16:21;10.00;;;6.10;;
74626;SDS011;63132;52.268;5.192;2023-05-07T11:18:49;8.55;;;4.70;;
74626;SDS011;63132;52.268;5.192;2023-05-07T11:21:31;9.00;;;5.10;;
74626;SDS011;63132;52.268;5.192;2023-05-07T11:23:57;11.05;;;3.25;;
74626;SDS011;63132;52.268;5.192;2023-05-07T11:26:23;10.63;;;3.22;;
74626;SDS011;63132;52.268;5.192;2023-05-07T11:28:50;6.85;;;3.17;;
74626;SDS011;63132;52.268;5.192;2023-05-07T11:31:20;7.10;;;3.70;;
74626;SDS011;63132;52.268;5.192;2023-05-07T11:33:48;8.00;;;3.28;;
74626;SDS011;63132;52.268;5.192;2023-05-07T11:36:14;4.78;;;2.63;;
74626;SDS011;63132;52.268;5.192;2023-05-07T11:38:39;7.18;;;3.08;;
74626;SDS011;63132;52.268;5.192;2023-05-07T11:41:05;8.02;;;3.63;;
74626;SDS011;63132;52.268;5.192;2023-05-07T11:43:33;10.77;;;4.18;;
74626;SDS011;63132;52.268;5.192;2023-05-07T11:46:10;7.88;;;4.25;;
74626;SDS011;63132;52.268;5.192;2023-05-07T11:48:37;10.23;;;4.10;;
74626;SDS011;63132;52.268;5.192;2023-05-07T11:51:06;7.07;;;4.10;;
74626;SDS011;63132;52.268;5.192;2023-05-07T11:53:40;8.32;;;3.85;;
74626;SDS011;63132;52.268;5.192;2023-05-07T11:56:07;7.70;;;3.80;;
74626;SDS011;63132;52.268;5.192;2023-05-07T11:58:33;7.65;;;3.05;;
74626;SDS011;63132;52.268;5.192;2023-05-07T12:00:59;6.05;;;2.90;;
74626;SDS011;63132;52.268;5.192;2023-05-07T12:03:24;7.50;;;3.05;;
74626;SDS011;63132;52.268;5.192;2023-05-07T12:05:50;8.10;;;3.30;;
74626;SDS011;63132;52.268;5.192;2023-05-07T12:08:15;6.18;;;2.45;;
74626;SDS011;63132;52.268;5.192;2023-05-07T12:10:42;5.82;;;2.55;;
74626;SDS011;63132;52.268;5.192;2023-05-07T12:13:28;6.30;;;3.38;;
74626;SDS011;63132;52.268;5.192;2023-05-07T12:15:53;6.20;;;3.43;;
74626;SDS011;63132;52.268;5.192;2023-05-07T12:18:20;8.05;;;3.33;;
74626;SDS011;63132;52.268;5.192;2023-05-07T12:20:47;6.63;;;3.20;;
74626;SDS011;63132;52.268;5.192;2023-05-07T12:23:13;8.10;;;3.25;;
74626;SDS011;63132;52.268;5.192;2023-05-07T12:25:39;8.05;;;3.45;;
74626;SDS011;63132;52.268;5.192;2023-05-07T12:28:12;7.18;;;3.72;;
74626;SDS011;63132;52.268;5.192;2023-05-07T12:30:40;7.38;;;3.30;;
74626;SDS011;63132;52.268;5.192;2023-05-07T12:33:07;8.13;;;3.08;;
74626;SDS011;63132;52.268;5.192;2023-05-07T12:35:36;5.38;;;2.95;;
74626;SDS011;63132;52.268;5.192;2023-05-07T12:38:09;6.82;;;2.72;;
74626;SDS011;63132;52.268;5.192;2023-05-07T12:40:39;6.55;;;2.58;;
74626;SDS011;63132;52.268;5.192;2023-05-07T12:43:05;8.85;;;3.50;;
74626;SDS011;63132;52.268;5.192;2023-05-07T12:45:31;7.47;;;3.67;;
74626;SDS011;63132;52.268;5.192;2023-05-07T12:48:02;7.53;;;3.53;;
74626;SDS011;63132;52.268;5.192;2023-05-07T12:50:30;8.90;;;4.00;;
74626;SDS011;63132;52.268;5.192;2023-05-07T12:52:57;6.85;;;3.28;;
74626;SDS011;63132;52.268;5.192;2023-05-07T12:55:22;10.48;;;3.20;;
74626;SDS011;63132;52.268;5.192;2023-05-07T12:57:48;7.18;;;3.15;;
74626;SDS011;63132;52.268;5.192;2023-05-07T13:00:15;7.47;;;4.10;;
74626;SDS011;63132;52.268;5.192;2023-05-07T13:02:41;7.63;;;3.80;;
74626;SDS011;63132;52.268;5.192;2023-05-07T13:05:11;7.30;;;4.28;;
74626;SDS011;63132;52.268;5.192;2023-05-07T13:07:36;8.23;;;4.28;;
74626;SDS011;63132;52.268;5.192;2023-05-07T13:10:02;7.40;;;4.18;;
74626;SDS011;63132;52.268;5.192;2023-05-07T13:12:28;5.10;;;3.33;;
74626;SDS011;63132;52.268;5.192;2023-05-07T13:14:53;7.20;;;3.65;;
74626;SDS011;63132;52.268;5.192;2023-05-07T13:17:19;5.30;;;2.70;;
74626;SDS011;63132;52.268;5.192;2023-05-07T13:19:44;5.45;;;3.30;;
74626;SDS011;63132;52.268;5.192;2023-05-07T13:22:09;7.07;;;3.50;;
74626;SDS011;63132;52.268;5.192;2023-05-07T13:24:35;9.73;;;4.35;;
74626;SDS011;63132;52.268;5.192;2023-05-07T13:27:01;6.50;;;3.40;;
74626;SDS011;63132;52.268;5.192;2023-05-07T13:29:26;8.05;;;4.30;;
74626;SDS011;63132;52.268;5.192;2023-05-07T13:31:55;6.15;;;3.45;;
74626;SDS011;63132;52.268;5.192;2023-05-07T13:34:21;10.95;;;5.55;;
74626;SDS011;63132;52.268;5.192;2023-05-07T13:36:47;14.60;;;5.93;;
74626;SDS011;63132;52.268;5.192;2023-05-07T13:39:12;11.65;;;6.57;;
74626;SDS011;63132;52.268;5.192;2023-05-07T13:41:37;7.18;;;5.20;;
74626;SDS011;63132;52.268;5.192;2023-05-07T13:44:03;11.20;;;5.13;;
74626;SDS011;63132;52.268;5.192;2023-05-07T13:46:28;8.77;;;5.57;;
74626;SDS011;63132;52.268;5.192;2023-05-07T13:48:54;9.82;;;5.88;;
74626;SDS011;63132;52.268;5.192;2023-05-07T13:51:20;10.30;;;6.22;;
74626;SDS011;63132;52.268;5.192;2023-05-07T13:53:45;11.63;;;6.18;;
74626;SDS011;63132;52.268;5.192;2023-05-07T13:56:10;9.80;;;6.47;;
74626;SDS011;63132;52.268;5.192;2023-05-07T13:58:36;9.75;;;5.78;;
74626;SDS011;63132;52.268;5.192;2023-05-07T14:01:01;9.65;;;6.07;;
74626;SDS011;63132;52.268;5.192;2023-05-07T14:03:27;11.02;;;6.13;;
74626;SDS011;63132;52.268;5.192;2023-05-07T14:05:52;11.73;;;5.88;;
74626;SDS011;63132;52.268;5.192;2023-05-07T14:08:17;14.73;;;6.55;;
74626;SDS011;63132;52.268;5.192;2023-05-07T14:10:44;8.48;;;6.00;;
74626;SDS011;63132;52.268;5.192;2023-05-07T14:13:11;9.52;;;6.50;;
74626;SDS011;63132;52.268;5.192;2023-05-07T14:15:36;11.00;;;6.78;;
74626;SDS011;63132;52.268;5.192;2023-05-07T14:18:02;11.48;;;5.38;;
74626;SDS011;63132;52.268;5.192;2023-05-07T14:20:27;10.80;;;4.55;;
74626;SDS011;63132;52.268;5.192;2023-05-07T14:22:53;7.65;;;4.85;;
74626;SDS011;63132;52.268;5.192;2023-05-07T14:25:18;9.80;;;4.88;;
74626;SDS011;63132;52.268;5.192;2023-05-07T14:27:44;10.75;;;4.53;;
74626;SDS011;63132;52.268;5.192;2023-05-07T14:30:09;9.27;;;4.35;;
74626;SDS011;63132;52.268;5.192;2023-05-07T14:32:35;8.65;;;4.45;;
74626;SDS011;63132;52.268;5.192;2023-05-07T14:35:00;7.88;;;4.07;;
74626;SDS011;63132;52.268;5.192;2023-05-07T14:37:26;9.18;;;3.80;;
74626;SDS011;63132;52.268;5.192;2023-05-07T14:39:51;8.68;;;4.47;;
74626;SDS011;63132;52.268;5.192;2023-05-07T14:42:17;13.02;;;4.82;;
74626;SDS011;63132;52.268;5.192;2023-05-07T14:44:42;11.10;;;5.03;;
74626;SDS011;63132;52.268;5.192;2023-05-07T14:47:09;12.50;;;5.57;;
74626;SDS011;63132;52.268;5.192;2023-05-07T14:49:35;11.95;;;5.72;;
74626;SDS011;63132;52.268;5.192;2023-05-07T14:52:00;16.23;;;6.38;;
74626;SDS011;63132;52.268;5.192;2023-05-07T14:54:26;13.45;;;7.32;;
74626;SDS011;63132;52.268;5.192;2023-05-07T14:56:51;10.50;;;6.45;;
74626;SDS011;63132;52.268;5.192;2023-05-07T14:59:16;15.55;;;7.60;;
74626;SDS011;63132;52.268;5.192;2023-05-07T15:01:45;14.05;;;8.95;;
74626;SDS011;63132;52.268;5.192;2023-05-07T15:04:11;15.45;;;8.57;;
74626;SDS011;63132;52.268;5.192;2023-05-07T15:06:37;13.48;;;8.90;;
74626;SDS011;63132;52.268;5.192;2023-05-07T15:09:02;41.33;;;14.85;;
74626;SDS011;63132;52.268;5.192;2023-05-07T15:11:28;21.77;;;14.25;;
74626;SDS011;63132;52.268;5.192;2023-05-07T15:13:53;18.65;;;13.75;;
74626;SDS011;63132;52.268;5.192;2023-05-07T15:16:19;23.30;;;14.88;;
74626;SDS011;63132;52.268;5.192;2023-05-07T15:18:45;21.73;;;15.60;;
74626;SDS011;63132;52.268;5.192;2023-05-07T15:21:10;23.85;;;16.48;;
74626;SDS011;63132;52.268;5.192;2023-05-07T15:23:36;19.58;;;15.93;;
74626;SDS011;63132;52.268;5.192;2023-05-07T15:26:02;24.50;;;16.02;;
74626;SDS011;63132;52.268;5.192;2023-05-07T15:28:27;29.20;;;16.42;;
74626;SDS011;63132;52.268;5.192;2023-05-07T15:30:54;29.35;;;18.35;;
74626;SDS011;63132;52.268;5.192;2023-05-07T15:33:20;28.40;;;19.63;;
74626;SDS011;63132;52.268;5.192;2023-05-07T15:35:45;81.40;;;30.92;;
74626;SDS011;63132;52.268;5.192;2023-05-07T15:38:10;28.00;;;17.50;;
74626;SDS011;63132;52.268;5.192;2023-05-07T15:40:37;27.42;;;17.40;;
74626;SDS011;63132;52.268;5.192;2023-05-07T15:43:06;29.20;;;17.63;;
74626;SDS011;63132;52.268;5.192;2023-05-07T15:45:33;30.45;;;17.67;;
74626;SDS011;63132;52.268;5.192;2023-05-07T15:48:03;25.15;;;17.13;;
74626;SDS011;63132;52.268;5.192;2023-05-07T15:50:28;28.35;;;17.42;;
74626;SDS011;63132;52.268;5.192;2023-05-07T15:52:54;29.63;;;20.40;;
74626;SDS011;63132;52.268;5.192;2023-05-07T15:55:19;27.02;;;16.55;;
74626;SDS011;63132;52.268;5.192;2023-05-07T15:57:44;21.85;;;14.88;;
74626;SDS011;63132;52.268;5.192;2023-05-07T16:00:10;22.88;;;15.75;;
74626;SDS011;63132;52.268;5.192;2023-05-07T16:02:36;18.85;;;14.52;;
74626;SDS011;63132;52.268;5.192;2023-05-07T16:05:01;21.92;;;14.43;;
74626;SDS011;63132;52.268;5.192;2023-05-07T16:07:27;21.65;;;15.43;;
74626;SDS011;63132;52.268;5.192;2023-05-07T16:12:18;25.37;;;14.70;;
74626;SDS011;63132;52.268;5.192;2023-05-07T16:14:43;27.52;;;15.00;;
74626;SDS011;63132;52.268;5.192;2023-05-07T16:17:08;29.90;;;15.57;;
74626;SDS011;63132;52.268;5.192;2023-05-07T16:19:34;37.17;;;18.05;;
74626;SDS011;63132;52.268;5.192;2023-05-07T16:21:59;29.73;;;18.00;;
74626;SDS011;63132;52.268;5.192;2023-05-07T16:24:25;29.98;;;18.73;;
74626;SDS011;63132;52.268;5.192;2023-05-07T16:26:50;32.60;;;18.73;;
74626;SDS011;63132;52.268;5.192;2023-05-07T16:29:16;42.70;;;19.40;;
74626;SDS011;63132;52.268;5.192;2023-05-07T16:31:41;37.95;;;21.05;;
74626;SDS011;63132;52.268;5.192;2023-05-07T16:34:06;35.88;;;22.95;;
74626;SDS011;63132;52.268;5.192;2023-05-07T16:36:32;39.28;;;22.42;;
74626;SDS011;63132;52.268;5.192;2023-05-07T16:38:57;34.35;;;21.20;;
74626;SDS011;63132;52.268;5.192;2023-05-07T16:41:23;36.67;;;20.23;;
74626;SDS011;63132;52.268;5.192;2023-05-07T16:43:48;38.22;;;26.73;;
74626;SDS011;63132;52.268;5.192;2023-05-07T16:46:13;24.83;;;16.23;;
74626;SDS011;63132;52.268;5.192;2023-05-07T16:48:39;21.60;;;15.43;;
74626;SDS011;63132;52.268;5.192;2023-05-07T16:51:04;19.80;;;14.18;;
74626;SDS011;63132;52.268;5.192;2023-05-07T16:53:31;19.33;;;13.32;;
74626;SDS011;63132;52.268;5.192;2023-05-07T16:55:56;18.10;;;13.52;;
74626;SDS011;63132;52.268;5.192;2023-05-07T16:58:22;20.00;;;12.40;;
74626;SDS011;63132;52.268;5.192;2023-05-07T17:00:47;17.13;;;12.93;;
74626;SDS011;63132;52.268;5.192;2023-05-07T17:03:13;16.33;;;12.68;;
74626;SDS011;63132;52.268;5.192;2023-05-07T17:05:38;20.23;;;15.80;;
74626;SDS011;63132;52.268;5.192;2023-05-07T17:08:04;16.55;;;14.15;;
74626;SDS011;63132;52.268;5.192;2023-05-07T17:10:30;14.82;;;13.05;;
74626;SDS011;63132;52.268;5.192;2023-05-07T17:12:55;16.35;;;11.15;;
74626;SDS011;63132;52.268;5.192;2023-05-07T17:15:20;9.52;;;7.63;;
74626;SDS011;63132;52.268;5.192;2023-05-07T17:17:46;8.55;;;5.28;;
74626;SDS011;63132;52.268;5.192;2023-05-07T17:20:11;7.47;;;4.22;;
74626;SDS011;63132;52.268;5.192;2023-05-07T17:22:37;9.27;;;4.28;;
74626;SDS011;63132;52.268;5.192;2023-05-07T17:25:02;6.50;;;3.92;;